createdAt,value
2018-07-08T00:01:31.492Z,58.90
2018-07-08T00:04:01.136Z,59.80
2018-07-08T00:06:42.447Z,59.80
2018-07-08T00:09:25.102Z,60.10
2018-07-08T00:12:03.304Z,60.20
2018-07-08T00:14:33.133Z,60.00
2018-07-08T00:17:02.889Z,60.80
2018-07-08T00:19:40.736Z,60.80
2018-07-08T00:22:10.982Z,61.10
2018-07-08T00:24:49.846Z,61.00
2018-07-08T00:27:19.500Z,61.70
2018-07-08T00:30:06.233Z,61.90
2018-07-08T00:32:45.688Z,62.10
2018-07-08T00:35:16.485Z,62.20
2018-07-08T00:37:55.242Z,62.50
2018-07-08T00:40:33.056Z,62.20
2018-07-08T00:43:12.073Z,61.70
2018-07-08T00:45:41.523Z,61.70
2018-07-08T00:55:43.803Z,63.40
2018-07-08T00:58:18.882Z,62.90
2018-07-08T01:00:48.801Z,63.00
2018-07-08T01:03:29.475Z,63.90
2018-07-08T01:05:59.730Z,64.00
2018-07-08T01:08:30.914Z,63.40
2018-07-08T01:11:00.457Z,64.20
2018-07-08T01:13:36.717Z,64.20
2018-07-08T01:16:07.081Z,63.70
2018-07-08T01:18:42.458Z,63.30
2018-07-08T01:21:12.272Z,63.60
2018-07-08T01:23:41.839Z,64.00
2018-07-08T01:26:20.111Z,64.70
2018-07-08T01:28:50.487Z,65.10
2018-07-08T01:31:20.904Z,65.20
2018-07-08T01:33:50.518Z,65.50
2018-07-08T01:36:21.576Z,65.40
2018-07-08T01:38:51.531Z,65.10
2018-07-08T01:41:27.140Z,66.00
2018-07-08T01:43:57.407Z,66.10
2018-07-08T01:46:27.433Z,65.60
2018-07-08T01:51:32.951Z,66.60
2018-07-08T01:54:07.938Z,66.60
2018-07-08T01:56:37.908Z,67.10
2018-07-08T01:59:07.410Z,67.20
2018-07-08T02:01:36.927Z,67.30
2018-07-08T02:04:15.694Z,67.50
2018-07-08T02:09:32.517Z,67.80
2018-07-08T02:12:20.518Z,68.20
2018-07-08T02:14:51.187Z,68.60
2018-07-08T02:17:20.563Z,68.50
2018-07-08T02:19:50.045Z,68.80
2018-07-08T02:22:20.716Z,68.60
2018-07-08T02:25:03.927Z,68.60
2018-07-08T02:27:34.413Z,68.70
2018-07-08T02:30:03.936Z,68.40
2018-07-08T02:32:33.577Z,68.50
2018-07-08T02:35:03.871Z,69.40
2018-07-08T02:37:33.372Z,69.20
2018-07-08T02:42:32.323Z,69.10
2018-07-08T02:45:07.214Z,70.00
2018-07-08T02:47:42.756Z,69.70
2018-07-08T02:50:12.952Z,70.10
2018-07-08T02:52:48.166Z,70.70
2018-07-08T02:55:23.542Z,70.90
2018-07-08T03:00:22.287Z,71.00
2018-07-08T03:02:51.697Z,71.10
2018-07-08T03:05:21.618Z,70.40
2018-07-08T03:07:51.091Z,71.20
2018-07-08T03:10:20.471Z,70.70
2018-07-08T03:12:50.337Z,70.60
2018-07-08T03:15:19.795Z,71.20
2018-07-08T03:17:49.274Z,70.90
2018-07-08T03:22:52.598Z,71.30
2018-07-08T03:27:57.562Z,71.70
2018-07-08T03:30:27.067Z,71.40
2018-07-08T03:33:08.299Z,71.40
2018-07-08T03:35:45.555Z,72.40
2018-07-08T03:38:15.236Z,72.00
2018-07-08T03:40:44.915Z,73.10
2018-07-08T03:43:22.080Z,72.30
2018-07-08T03:45:52.275Z,72.70
2018-07-08T03:48:27.074Z,72.50
2018-07-08T03:51:02.108Z,72.70
2018-07-08T03:53:31.893Z,72.90
2018-07-08T03:56:01.313Z,73.10
2018-07-08T03:58:39.837Z,73.20
2018-07-08T04:01:14.573Z,73.30
2018-07-08T04:03:44.008Z,73.30
2018-07-08T04:06:13.530Z,73.50
2018-07-08T04:08:54.502Z,73.10
2018-07-08T04:11:24.283Z,73.20
2018-07-08T04:14:06.794Z,73.50
2018-07-08T04:16:36.965Z,73.70
2018-07-08T04:19:06.489Z,73.60
2018-07-08T04:24:05.644Z,73.80
2018-07-08T04:26:45.586Z,74.00
2018-07-08T04:29:15.502Z,73.80
2018-07-08T04:31:59.120Z,73.80
2018-07-08T04:34:34.300Z,73.90
2018-07-08T04:37:03.843Z,74.10
2018-07-08T04:39:33.645Z,74.30
2018-07-08T04:45:04.610Z,74.00
2018-07-08T04:50:03.317Z,73.30
2018-07-08T04:52:33.853Z,73.30
2018-07-08T04:55:03.335Z,73.50
2018-07-08T04:57:33.333Z,73.40
2018-07-08T05:00:03.001Z,73.50
2018-07-08T05:02:32.645Z,73.60
2018-07-08T05:05:08.387Z,74.20
2018-07-08T05:07:44.497Z,74.40
2018-07-08T05:10:14.049Z,73.70
2018-07-08T05:12:56.137Z,73.50
2018-07-08T05:15:39.958Z,73.70
2018-07-08T05:18:09.384Z,73.40
2018-07-08T05:20:58.040Z,73.50
2018-07-08T05:23:31.979Z,73.10
2018-07-08T05:26:08.521Z,73.30
2018-07-08T05:28:37.968Z,73.10
2018-07-08T05:31:14.455Z,73.20
2018-07-08T05:33:45.193Z,73.40
2018-07-08T05:36:15.933Z,73.20
2018-07-08T05:38:45.827Z,73.50
2018-07-08T05:41:15.609Z,73.60
2018-07-08T05:43:45.033Z,73.80
2018-07-08T05:46:21.774Z,74.00
2018-07-08T05:48:51.269Z,73.90
2018-07-08T05:51:27.033Z,73.90
2018-07-08T05:54:05.230Z,74.20
2018-07-08T05:56:35.254Z,73.40
2018-07-08T05:59:13.387Z,73.60
2018-07-08T06:01:42.822Z,73.60
2018-07-08T06:04:12.908Z,73.10
2018-07-08T06:06:53.885Z,73.00
2018-07-08T06:12:06.328Z,73.50
2018-07-08T06:14:36.458Z,73.10
2018-07-08T06:17:06.043Z,73.00
2018-07-08T06:22:08.479Z,73.20
2018-07-08T06:24:37.837Z,73.30
2018-07-08T06:29:36.468Z,72.80
2018-07-08T06:32:14.937Z,72.40
2018-07-08T06:37:13.886Z,72.00
2018-07-08T06:39:50.585Z,72.00
2018-07-08T06:42:26.150Z,72.00
2018-07-08T06:45:00.529Z,72.40
2018-07-08T06:47:30.525Z,72.30
2018-07-08T06:50:00.008Z,72.40
2018-07-08T06:52:29.578Z,73.10
2018-07-08T06:55:08.191Z,71.20
2018-07-08T06:57:38.582Z,71.50
2018-07-08T07:00:13.050Z,71.70
2018-07-08T07:02:49.859Z,72.40
2018-07-08T07:05:19.939Z,71.80
2018-07-08T07:07:49.814Z,71.10
2018-07-08T07:10:20.321Z,70.50
2018-07-08T07:12:55.108Z,71.30
2018-07-08T07:15:24.760Z,70.30
2018-07-08T07:17:54.377Z,69.10
2018-07-08T07:20:36.596Z,69.50
2018-07-08T07:23:06.611Z,69.40
2018-07-08T07:25:47.541Z,67.90
2018-07-08T07:28:21.785Z,67.90
2018-07-08T07:30:58.638Z,68.60
2018-07-08T07:33:28.634Z,64.10
2018-07-08T07:35:58.187Z,66.30
2018-07-08T07:38:28.809Z,65.40
2018-07-08T07:41:00.090Z,66.60
2018-07-08T07:43:35.317Z,65.00
2018-07-08T07:46:05.726Z,65.00
2018-07-08T07:48:39.061Z,64.40
2018-07-08T07:51:08.584Z,63.00
2018-07-08T07:53:38.661Z,60.90
2018-07-08T07:56:09.832Z,59.60
2018-07-08T07:58:39.898Z,59.70
2018-07-08T08:03:44.547Z,58.60
2018-07-08T08:06:15.118Z,56.40
2018-07-08T08:08:50.259Z,56.20
2018-07-08T08:11:25.600Z,56.70
2018-07-08T08:14:04.703Z,57.30
2018-07-08T08:16:34.613Z,57.90
2018-07-08T08:19:12.241Z,54.60
2018-07-08T08:21:43.081Z,56.20
2018-07-08T08:24:12.649Z,56.70
2018-07-08T08:26:42.124Z,57.10
2018-07-08T08:31:56.945Z,55.00
2018-07-08T08:34:59.507Z,53.80
2018-07-08T08:37:34.865Z,54.20
2018-07-08T08:40:10.648Z,54.30
2018-07-08T08:42:41.228Z,53.20
2018-07-08T08:45:12.171Z,53.00
2018-07-08T08:47:47.418Z,54.30
2018-07-08T08:50:21.780Z,54.00
2018-07-08T08:52:51.373Z,53.80
2018-07-08T08:55:29.756Z,53.80
2018-07-08T08:58:03.738Z,53.70
2018-07-08T09:00:35.025Z,54.70
2018-07-08T09:03:21.200Z,55.00
2018-07-08T09:05:52.426Z,54.40
2018-07-08T09:11:08.886Z,54.20
2018-07-08T09:13:39.262Z,54.60
2018-07-08T09:16:17.715Z,55.00
2018-07-08T09:18:48.634Z,53.70
2018-07-08T09:21:18.749Z,53.80
2018-07-08T09:24:05.126Z,54.50
2018-07-08T09:26:35.666Z,53.60
2018-07-08T09:29:06.284Z,53.70
2018-07-08T09:31:37.909Z,54.20
2018-07-08T09:34:09.034Z,54.20
2018-07-08T09:36:52.606Z,54.20
2018-07-08T09:39:23.217Z,54.50
2018-07-08T09:41:52.757Z,54.50
2018-07-08T09:44:23.562Z,54.00
2018-07-08T09:46:53.513Z,54.50
2018-07-08T09:49:37.119Z,54.50
2018-07-08T09:52:08.112Z,54.70
2018-07-08T09:54:38.750Z,53.20
2018-07-08T09:57:08.480Z,53.40
2018-07-08T09:59:38.389Z,53.00
2018-07-08T10:02:07.969Z,52.60
2018-07-08T10:04:37.675Z,50.00
2018-07-08T10:07:16.078Z,51.50
2018-07-08T10:09:45.689Z,51.30
2018-07-08T10:14:52.967Z,52.60
2018-07-08T10:17:24.144Z,50.80
2018-07-08T10:19:54.853Z,49.90
2018-07-08T10:22:35.213Z,50.10
2018-07-08T10:25:05.532Z,47.70
2018-07-08T10:27:59.234Z,48.90
2018-07-08T10:30:29.204Z,47.20
2018-07-08T10:33:05.805Z,47.50
2018-07-08T10:36:07.174Z,46.00
2018-07-08T10:38:46.984Z,46.20
2018-07-08T10:41:16.593Z,45.10
2018-07-08T10:43:47.330Z,45.80
2018-07-08T10:46:18.676Z,46.00
2018-07-08T10:54:03.583Z,46.70
2018-07-08T10:56:33.648Z,46.20
2018-07-08T10:59:05.044Z,45.70
2018-07-08T11:01:34.974Z,45.30
2018-07-08T11:04:05.513Z,43.80
2018-07-08T11:06:35.284Z,45.60
2018-07-08T11:09:10.230Z,45.20
2018-07-08T11:11:40.872Z,44.80
2018-07-08T11:14:11.625Z,45.20
2018-07-08T11:16:41.914Z,44.80
2018-07-08T11:19:14.400Z,44.90
2018-07-08T11:21:45.315Z,45.10
2018-07-08T11:24:15.188Z,45.80
2018-07-08T11:26:45.557Z,45.30
2018-07-08T11:29:28.728Z,44.50
2018-07-08T11:31:59.409Z,41.40
2018-07-08T11:34:32.749Z,43.10
2018-07-08T11:37:06.760Z,42.40
2018-07-08T11:42:26.006Z,42.80
2018-07-08T11:45:05.916Z,42.00
2018-07-08T11:47:39.240Z,42.70
2018-07-08T11:50:10.702Z,42.30
2018-07-08T11:52:41.660Z,41.20
2018-07-08T11:55:11.945Z,40.90
2018-07-08T11:57:49.652Z,42.20
2018-07-08T12:00:24.427Z,41.30
2018-07-08T12:03:00.105Z,40.40
2018-07-08T12:05:35.742Z,39.60
2018-07-08T12:08:10.515Z,38.60
2018-07-08T12:10:43.229Z,40.00
2018-07-08T12:13:19.742Z,39.30
2018-07-08T12:15:57.310Z,39.10
2018-07-08T12:18:27.996Z,38.60
2018-07-08T12:20:58.045Z,37.00
2018-07-08T12:23:27.977Z,36.20
2018-07-08T12:25:57.946Z,37.00
2018-07-08T12:28:27.685Z,33.90
2018-07-08T12:30:58.429Z,35.60
2018-07-08T12:33:35.632Z,35.10
2018-07-08T12:36:06.358Z,32.80
2018-07-08T12:38:36.159Z,33.70
2018-07-08T12:41:11.148Z,33.50
2018-07-08T12:43:46.137Z,32.90
2018-07-08T12:46:17.801Z,34.50
2018-07-08T12:48:47.357Z,34.40
2018-07-08T12:51:16.949Z,34.60
2018-07-08T12:53:53.177Z,35.10
2018-07-08T12:56:24.908Z,34.20
2018-07-08T12:58:54.745Z,33.60
2018-07-08T13:01:25.319Z,32.60
2018-07-08T13:03:55.486Z,31.10
2018-07-08T13:06:30.646Z,31.30
2018-07-08T13:09:00.390Z,30.30
2018-07-08T13:11:31.037Z,30.70
2018-07-08T13:14:00.794Z,30.40
2018-07-08T13:16:32.762Z,30.20
2018-07-08T13:19:02.412Z,29.50
2018-07-08T13:21:31.970Z,29.50
2018-07-08T13:24:09.188Z,30.20
2018-07-08T13:26:39.330Z,29.70
2018-07-08T13:29:18.843Z,32.10
2018-07-08T13:31:48.402Z,31.40
2018-07-08T13:34:25.697Z,30.60
2018-07-08T13:37:01.659Z,30.80
2018-07-08T13:39:32.311Z,31.20
2018-07-08T13:42:01.868Z,31.80
2018-07-08T13:44:36.899Z,31.40
2018-07-08T13:47:08.257Z,31.00
2018-07-08T13:49:38.793Z,33.30
2018-07-08T13:52:14.265Z,33.10
2018-07-08T13:54:44.502Z,33.60
2018-07-08T13:57:15.360Z,33.90
2018-07-08T13:59:45.001Z,33.60
2018-07-08T14:02:20.616Z,32.60
2018-07-08T14:04:55.468Z,33.30
2018-07-08T14:07:25.594Z,34.10
2018-07-08T14:09:55.510Z,32.80
2018-07-08T14:12:25.128Z,33.10
2018-07-08T14:14:57.275Z,32.80
2018-07-08T14:17:29.903Z,32.70
2018-07-08T14:20:09.505Z,32.20
2018-07-08T14:22:40.357Z,32.00
2018-07-08T14:25:10.058Z,33.00
2018-07-08T14:27:39.720Z,33.70
2018-07-08T14:30:10.051Z,34.10
2018-07-08T14:32:39.950Z,33.50
2018-07-08T14:35:09.652Z,33.90
2018-07-08T14:37:40.481Z,33.40
2018-07-08T14:40:10.060Z,35.40
2018-07-08T14:42:46.785Z,36.10
2018-07-08T14:45:21.477Z,36.20
2018-07-08T14:48:14.812Z,36.20
2018-07-08T14:50:46.165Z,35.40
2018-07-08T14:53:23.583Z,35.70
2018-07-08T14:55:54.737Z,36.30
2018-07-08T14:58:26.905Z,35.70
2018-07-08T15:00:58.579Z,35.10
2018-07-08T15:03:29.635Z,35.20
2018-07-08T15:06:06.259Z,36.40
2018-07-08T15:08:38.001Z,37.20
2018-07-08T15:11:14.834Z,37.90
2018-07-08T15:13:45.459Z,37.00
2018-07-08T15:16:18.702Z,37.90
2018-07-08T15:18:58.349Z,37.90
2018-07-08T15:21:27.988Z,37.40
2018-07-08T15:24:04.486Z,36.20
2018-07-08T15:26:34.421Z,36.60
2018-07-08T15:29:19.332Z,35.80
2018-07-08T15:31:57.888Z,36.40
2018-07-08T15:34:35.405Z,37.00
2018-07-08T15:37:05.313Z,37.70
2018-07-08T15:39:34.974Z,38.00
2018-07-08T15:42:11.945Z,38.30
2018-07-08T15:44:47.858Z,38.20
2018-07-08T15:47:18.410Z,37.50
2018-07-08T15:49:49.730Z,38.00
2018-07-08T15:52:20.895Z,39.80
2018-07-08T15:54:51.217Z,41.10
2018-07-08T15:57:31.263Z,40.00
2018-07-08T16:00:01.413Z,40.50
2018-07-08T16:02:31.238Z,40.20
2018-07-08T16:05:00.878Z,41.00
2018-07-08T16:07:30.601Z,41.70
2018-07-08T16:10:00.269Z,41.60
2018-07-08T16:12:30.731Z,42.40
2018-07-08T16:15:05.788Z,42.60
2018-07-08T16:17:43.877Z,41.60
2018-07-08T16:20:25.685Z,41.00
2018-07-08T16:23:07.017Z,41.90
2018-07-08T16:25:43.610Z,42.00
2018-07-08T16:28:14.743Z,41.80
2018-07-08T16:30:44.511Z,40.40
2018-07-08T16:33:22.408Z,41.40
2018-07-08T16:35:56.690Z,41.70
2018-07-08T16:38:26.722Z,42.60
2018-07-08T16:40:57.430Z,42.00
2018-07-08T16:43:28.650Z,43.20
2018-07-08T16:45:59.279Z,42.90
2018-07-08T16:48:31.013Z,43.20
2018-07-08T16:51:00.815Z,43.60
2018-07-08T16:53:30.687Z,43.90
2018-07-08T16:56:00.779Z,43.20
2018-07-08T16:58:30.498Z,42.80
2018-07-08T17:01:01.251Z,42.80
2018-07-08T17:03:32.047Z,43.70
2018-07-08T17:06:03.036Z,43.00
2018-07-08T17:08:34.617Z,43.20
2018-07-08T17:11:05.701Z,43.80
2018-07-08T17:13:41.334Z,43.80
2018-07-08T17:16:35.890Z,44.20
2018-07-08T17:19:09.287Z,44.50
2018-07-08T17:21:40.063Z,44.40
2018-07-08T17:24:11.953Z,44.40
2018-07-08T17:26:41.800Z,44.00
2018-07-08T17:29:11.911Z,44.10
2018-07-08T17:31:48.733Z,43.90
2018-07-08T17:34:18.749Z,44.00
2018-07-08T17:36:54.967Z,45.20
2018-07-08T17:39:25.765Z,44.80
2018-07-08T17:42:00.488Z,44.50
2018-07-08T17:44:30.510Z,44.70
2018-07-08T17:47:08.151Z,45.20
2018-07-08T17:49:38.292Z,45.10
2018-07-08T17:52:08.844Z,45.00
2018-07-08T17:54:38.885Z,45.10
2018-07-08T17:57:09.363Z,45.50
2018-07-08T18:05:49.458Z,45.80
2018-07-08T18:08:25.610Z,45.40
2018-07-08T18:10:56.582Z,45.90
2018-07-08T18:13:27.023Z,45.80
2018-07-08T18:18:38.542Z,45.50
2018-07-08T18:21:12.295Z,45.60
2018-07-08T18:23:58.979Z,45.90
2018-07-08T18:26:29.025Z,46.10
2018-07-08T18:29:18.882Z,46.30
2018-07-08T18:31:59.965Z,46.60
2018-07-08T18:34:31.613Z,47.00
2018-07-08T18:37:01.568Z,46.70
2018-07-08T18:39:31.911Z,46.60
2018-07-08T18:42:10.010Z,46.70
2018-07-08T18:44:41.488Z,47.20
2018-07-08T18:47:17.106Z,46.70
2018-07-08T18:49:47.978Z,47.00
2018-07-08T18:52:18.207Z,47.00
2018-07-08T18:55:04.054Z,47.10
2018-07-08T18:57:34.321Z,47.40
2018-07-08T19:00:06.208Z,47.60
2018-07-08T19:02:36.479Z,47.80
2018-07-08T19:05:19.392Z,48.40
2018-07-08T19:07:55.016Z,48.60
2018-07-08T19:10:25.627Z,48.20
2018-07-08T19:12:55.604Z,49.00
2018-07-08T19:15:26.496Z,48.50
2018-07-08T19:17:56.734Z,48.80
2018-07-08T19:20:34.458Z,48.70
2018-07-08T19:23:13.377Z,49.00
2018-07-08T19:25:48.628Z,49.00
2018-07-08T19:28:18.675Z,49.30
2018-07-08T19:30:59.597Z,49.20
2018-07-08T19:33:29.870Z,49.40
2018-07-08T19:36:04.792Z,49.90
2018-07-08T19:38:39.643Z,49.70
2018-07-08T19:41:22.924Z,49.90
2018-07-08T19:43:54.050Z,49.70
2018-07-08T19:46:34.338Z,50.40
2018-07-08T19:49:04.751Z,49.90
2018-07-08T19:51:35.251Z,50.80
2018-07-08T19:54:06.212Z,50.80
2018-07-08T19:56:36.640Z,51.20
2018-07-08T19:59:07.872Z,51.90
2018-07-08T20:01:43.975Z,51.20
2018-07-08T20:04:15.174Z,52.40
2018-07-08T20:06:45.118Z,52.70
2018-07-08T20:09:20.566Z,51.40
2018-07-08T20:11:50.650Z,54.00
2018-07-08T20:14:20.456Z,52.60
2018-07-08T20:16:51.195Z,54.50
2018-07-08T20:19:26.609Z,54.50
2018-07-08T20:21:56.687Z,55.30
2018-07-08T20:24:32.365Z,54.70
2018-07-08T20:27:02.913Z,54.80
2018-07-08T20:29:36.421Z,55.20
2018-07-08T20:32:27.776Z,54.60
2018-07-08T20:34:58.804Z,55.40
2018-07-08T20:37:28.926Z,55.40
2018-07-08T20:40:00.127Z,55.40
2018-07-08T20:42:30.301Z,56.10
2018-07-08T20:45:01.451Z,55.60
2018-07-08T20:47:32.732Z,56.10
2018-07-08T20:50:03.711Z,55.90
2018-07-08T20:52:48.587Z,56.10
2018-07-08T20:55:37.572Z,57.00
2018-07-08T20:58:08.429Z,56.80
2018-07-08T21:00:41.081Z,57.30
2018-07-08T21:03:11.190Z,57.90
2018-07-08T21:05:54.090Z,58.30
2018-07-08T21:08:24.393Z,57.70
2018-07-08T21:10:54.757Z,58.10
2018-07-08T21:13:38.295Z,58.20
2018-07-08T21:16:08.658Z,57.80
2018-07-08T21:18:38.327Z,57.70
2018-07-08T21:21:24.213Z,57.90
2018-07-08T21:23:56.758Z,58.30
2018-07-08T21:26:26.480Z,58.80
2018-07-08T21:28:56.263Z,58.40
2018-07-08T21:31:26.993Z,58.20
2018-07-08T21:33:56.992Z,58.20
2018-07-08T21:36:27.091Z,59.20
2018-07-08T21:39:07.307Z,59.40
2018-07-08T21:41:37.466Z,59.70
2018-07-08T21:44:30.514Z,59.70
2018-07-08T21:47:09.364Z,59.60
2018-07-08T21:49:41.023Z,59.60
2018-07-08T21:52:17.856Z,59.60
2018-07-08T21:54:52.797Z,59.50
2018-07-08T21:57:22.588Z,59.60
2018-07-08T21:59:52.373Z,59.80
2018-07-08T22:02:24.165Z,59.80
2018-07-08T22:04:53.753Z,60.10
2018-07-08T22:07:35.208Z,60.50
2018-07-08T22:10:10.047Z,61.20
2018-07-08T22:12:40.261Z,60.00
2018-07-08T22:15:10.264Z,61.20
2018-07-08T22:17:42.182Z,60.70
2018-07-08T22:20:14.729Z,60.80
2018-07-08T22:22:44.482Z,61.40
2018-07-08T22:25:27.276Z,61.20
2018-07-08T22:27:57.166Z,61.10
2018-07-08T22:30:26.694Z,61.20
2018-07-08T22:32:56.294Z,61.30
2018-07-08T22:35:26.459Z,61.50
2018-07-08T22:38:09.200Z,61.50
2018-07-08T22:40:46.442Z,61.20
2018-07-08T22:43:16.869Z,61.70
2018-07-08T22:46:02.553Z,61.50
2018-07-08T22:48:32.479Z,62.30
2018-07-08T22:51:02.205Z,62.70
2018-07-08T22:53:37.883Z,62.50
2018-07-08T22:56:13.167Z,62.80
2018-07-08T22:58:48.695Z,63.10
2018-07-08T23:01:28.889Z,62.50
2018-07-08T23:04:04.515Z,63.10
2018-07-08T23:06:39.573Z,62.40
2018-07-08T23:09:14.855Z,62.60
2018-07-08T23:11:44.804Z,62.50
2018-07-08T23:14:25.529Z,62.60
2018-07-08T23:16:55.668Z,62.40
2018-07-08T23:19:25.720Z,62.80
2018-07-08T23:21:55.674Z,62.80
2018-07-08T23:24:35.510Z,63.00
2018-07-08T23:27:05.923Z,63.20
2018-07-08T23:29:43.360Z,63.30
2018-07-08T23:32:13.225Z,63.70
2018-07-08T23:34:50.092Z,63.60
2018-07-08T23:37:20.565Z,63.80
2018-07-08T23:39:50.430Z,64.00
2018-07-08T23:42:27.539Z,63.90
2018-07-08T23:44:58.006Z,64.00
2018-07-08T23:47:28.673Z,64.30
2018-07-08T23:50:20.265Z,64.40
2018-07-08T23:52:49.832Z,64.60
2018-07-08T23:55:19.815Z,65.00
2018-07-08T23:57:49.849Z,65.70
